createdAt,value
2022-10-22T00:01:10.316Z,28.13
2022-10-22T00:03:40.578Z,28.13
2022-10-22T00:06:08.752Z,24.85
2022-10-22T00:08:36.494Z,28.97
2022-10-22T00:11:18.804Z,28.88
2022-10-22T00:16:20.297Z,29.80
2022-10-22T00:18:48.097Z,32.15
2022-10-22T00:21:16.171Z,26.20
2022-10-22T00:23:44.034Z,31.17
2022-10-22T00:26:12.715Z,25.48
2022-10-22T00:28:40.523Z,36.10
2022-10-22T00:31:08.627Z,30.77
2022-10-22T00:33:36.381Z,28.57
2022-10-22T00:36:04.949Z,29.45
2022-10-22T00:38:33.590Z,30.48
2022-10-22T00:43:53.276Z,28.75
2022-10-22T00:46:21.452Z,28.07
2022-10-22T00:48:49.441Z,27.58
2022-10-22T00:51:17.811Z,27.27
2022-10-22T00:53:49.940Z,27.85
2022-10-22T00:56:18.471Z,26.02
2022-10-22T00:58:50.176Z,27.80
2022-10-22T01:01:23.140Z,26.88
2022-10-22T01:03:51.807Z,28.27
2022-10-22T01:06:34.420Z,29.85
2022-10-22T01:09:05.320Z,27.88
2022-10-22T01:11:48.199Z,29.30
2022-10-22T01:14:34.624Z,35.40
2022-10-22T01:17:28.310Z,29.25
2022-10-22T01:19:59.154Z,29.92
2022-10-22T01:22:34.589Z,31.30
2022-10-22T01:25:21.495Z,28.00
2022-10-22T01:28:10.863Z,29.15
2022-10-22T01:30:40.976Z,28.10
2022-10-22T01:33:13.635Z,27.17
2022-10-22T01:35:44.232Z,26.63
2022-10-22T01:38:17.627Z,28.03
2022-10-22T01:40:47.748Z,28.33
2022-10-22T01:43:15.753Z,28.02
2022-10-22T01:45:52.300Z,26.63
2022-10-22T01:48:35.507Z,29.88
2022-10-22T01:51:21.206Z,31.63
2022-10-22T01:54:23.083Z,30.40
2022-10-22T01:57:16.000Z,31.33
2022-10-22T01:59:43.986Z,28.42
2022-10-22T02:02:17.471Z,28.50
2022-10-22T02:04:50.989Z,27.47
2022-10-22T02:07:23.306Z,28.15
2022-10-22T02:09:53.864Z,28.15
2022-10-22T02:12:22.928Z,26.73
2022-10-22T02:14:52.904Z,25.00
2022-10-22T02:17:22.753Z,27.03
2022-10-22T02:20:00.763Z,28.35
2022-10-22T02:22:28.996Z,22.65
2022-10-22T02:24:57.112Z,24.58
2022-10-22T02:27:33.838Z,27.67
2022-10-22T02:33:21.997Z,24.08
2022-10-22T02:35:52.473Z,22.85
2022-10-22T02:38:21.621Z,22.60
2022-10-22T02:40:50.361Z,25.10
2022-10-22T02:43:19.205Z,24.07
2022-10-22T02:45:47.658Z,22.58
2022-10-22T02:48:15.860Z,24.73
2022-10-22T02:50:43.969Z,25.48
2022-10-22T02:53:11.720Z,26.48
2022-10-22T02:55:39.829Z,25.43
2022-10-22T02:58:07.577Z,24.67
2022-10-22T03:00:35.531Z,30.40
2022-10-22T03:03:03.352Z,23.98
2022-10-22T03:05:31.245Z,25.65
2022-10-22T03:07:58.969Z,24.33
2022-10-22T03:10:26.933Z,26.05
2022-10-22T03:12:54.830Z,26.42
2022-10-22T03:15:22.738Z,27.10
2022-10-22T03:17:50.863Z,27.05
2022-10-22T03:20:18.760Z,24.83
2022-10-22T03:22:47.060Z,22.15
2022-10-22T03:25:21.309Z,23.83
2022-10-22T03:27:51.719Z,26.73
2022-10-22T03:30:19.909Z,24.30
2022-10-22T03:32:47.587Z,25.23
2022-10-22T03:35:15.738Z,26.85
2022-10-22T03:37:43.602Z,25.98
2022-10-22T03:40:14.466Z,27.60
2022-10-22T03:42:42.478Z,27.75
2022-10-22T03:45:11.187Z,25.77
2022-10-22T03:47:39.182Z,28.77
2022-10-22T03:50:08.143Z,23.50
2022-10-22T03:52:37.910Z,24.83
2022-10-22T03:55:07.415Z,25.77
2022-10-22T03:57:35.283Z,32.97
2022-10-22T04:00:05.747Z,25.30
2022-10-22T04:02:33.568Z,29.45
2022-10-22T04:05:02.224Z,24.15
2022-10-22T04:07:30.133Z,37.72
2022-10-22T04:09:58.200Z,37.77
2022-10-22T04:12:25.946Z,37.90
2022-10-22T04:14:53.841Z,32.50
2022-10-22T04:17:21.679Z,33.80
2022-10-22T04:19:49.540Z,34.55
2022-10-22T04:22:17.340Z,31.73
2022-10-22T04:24:45.322Z,33.92
2022-10-22T04:27:13.070Z,29.05
2022-10-22T04:29:40.978Z,29.30
2022-10-22T04:32:08.867Z,28.02
2022-10-22T04:34:36.782Z,26.90
2022-10-22T04:37:05.244Z,25.85
2022-10-22T04:39:33.226Z,26.83
2022-10-22T04:42:01.006Z,29.88
2022-10-22T04:44:29.071Z,26.67
2022-10-22T04:46:56.843Z,35.20
2022-10-22T04:49:24.784Z,32.67
2022-10-22T04:51:52.518Z,27.67
2022-10-22T04:54:20.629Z,28.67
2022-10-22T04:56:48.347Z,31.38
2022-10-22T04:59:16.284Z,32.27
2022-10-22T05:01:45.304Z,32.10
2022-10-22T05:04:17.029Z,30.27
2022-10-22T05:06:45.717Z,29.88
2022-10-22T05:09:19.437Z,26.83
2022-10-22T05:11:50.326Z,31.40
2022-10-22T05:14:22.387Z,27.60
2022-10-22T05:16:51.341Z,43.95
2022-10-22T05:19:24.293Z,42.65
2022-10-22T05:21:56.996Z,32.08
2022-10-22T05:24:25.948Z,26.77
2022-10-22T05:26:55.936Z,38.00
2022-10-22T05:29:24.448Z,32.95
2022-10-22T05:31:52.413Z,32.05
2022-10-22T05:34:20.759Z,30.88
2022-10-22T05:36:48.520Z,31.13
2022-10-22T05:39:16.601Z,30.15
2022-10-22T05:41:45.135Z,30.58
2022-10-22T05:44:14.233Z,41.15
2022-10-22T05:46:43.605Z,53.47
2022-10-22T05:49:14.738Z,109.30
2022-10-22T05:51:42.710Z,97.75
2022-10-22T05:54:17.827Z,84.57
2022-10-22T05:56:45.642Z,56.13
2022-10-22T05:59:13.582Z,27.70
2022-10-22T06:01:41.705Z,22.83
2022-10-22T06:04:13.195Z,23.13
2022-10-22T06:06:45.982Z,24.67
2022-10-22T06:09:28.841Z,27.88
2022-10-22T06:11:57.984Z,25.33
2022-10-22T06:14:26.805Z,25.77
2022-10-22T06:16:54.957Z,23.40
2022-10-22T06:19:26.058Z,24.23
2022-10-22T06:21:54.421Z,26.70
2022-10-22T06:24:22.597Z,20.70
2022-10-22T06:26:51.913Z,20.20
2022-10-22T06:29:20.046Z,22.75
2022-10-22T06:31:47.701Z,21.00
2022-10-22T06:34:19.115Z,17.60
2022-10-22T06:36:47.512Z,20.95
2022-10-22T06:39:17.106Z,20.57
2022-10-22T06:41:45.027Z,18.85
2022-10-22T06:44:17.972Z,29.60
2022-10-22T06:46:45.871Z,25.63
2022-10-22T06:49:15.677Z,20.40
2022-10-22T06:51:43.995Z,22.73
2022-10-22T06:54:12.585Z,20.13
2022-10-22T06:56:40.374Z,19.10
2022-10-22T06:59:08.871Z,18.30
2022-10-22T07:01:38.053Z,20.08
2022-10-22T07:04:07.373Z,22.60
2022-10-22T07:06:35.191Z,24.48
2022-10-22T07:09:03.401Z,25.55
2022-10-22T07:11:43.123Z,21.95
2022-10-22T07:14:12.086Z,25.85
2022-10-22T07:16:42.387Z,26.57
2022-10-22T07:19:10.383Z,22.33
2022-10-22T07:21:38.299Z,21.00
2022-10-22T07:24:06.769Z,17.73
2022-10-22T07:26:34.349Z,21.58
2022-10-22T07:29:03.289Z,20.30
2022-10-22T07:31:31.521Z,19.60
2022-10-22T07:33:59.588Z,20.42
2022-10-22T07:36:28.044Z,19.15
2022-10-22T07:38:58.639Z,15.57
2022-10-22T07:41:28.448Z,17.57
2022-10-22T07:43:57.893Z,17.35
2022-10-22T07:46:26.003Z,17.85
2022-10-22T07:48:54.480Z,13.77
2022-10-22T07:51:22.388Z,15.95
2022-10-22T07:53:50.954Z,13.67
2022-10-22T07:56:18.803Z,12.88
2022-10-22T07:58:46.866Z,13.45
2022-10-22T08:01:14.613Z,14.25
2022-10-22T08:03:42.784Z,13.63
2022-10-22T08:06:15.209Z,12.23
2022-10-22T08:08:44.026Z,13.80
2022-10-22T08:11:12.113Z,18.02
2022-10-22T08:13:44.877Z,15.68
2022-10-22T08:16:13.703Z,15.57
2022-10-22T08:18:41.855Z,14.67
2022-10-22T08:21:09.589Z,28.23
2022-10-22T08:23:38.281Z,26.58
2022-10-22T08:26:06.259Z,30.48
2022-10-22T08:28:37.334Z,24.90
2022-10-22T08:31:07.957Z,32.67
2022-10-22T08:33:36.295Z,31.75
2022-10-22T08:36:04.102Z,34.00
2022-10-22T08:38:32.280Z,38.92
2022-10-22T08:41:16.255Z,36.90
2022-10-22T08:44:15.751Z,44.40
2022-10-22T08:46:52.924Z,29.95
2022-10-22T08:49:31.996Z,30.52
2022-10-22T08:52:00.554Z,33.92
2022-10-22T08:54:55.746Z,35.88
2022-10-22T08:58:02.141Z,34.87
2022-10-22T09:00:42.151Z,33.70
2022-10-22T09:03:54.966Z,31.13
2022-10-22T09:06:31.801Z,37.17
2022-10-22T09:09:01.708Z,36.22
2022-10-22T09:11:36.531Z,34.53
2022-10-22T09:14:05.336Z,39.10
2022-10-22T09:16:43.429Z,41.15
2022-10-22T09:19:20.185Z,45.05
2022-10-22T09:22:15.721Z,41.33
2022-10-22T09:24:57.484Z,38.67
2022-10-22T09:27:30.985Z,38.25
2022-10-22T09:29:58.985Z,38.75
2022-10-22T09:32:27.481Z,45.33
2022-10-22T09:34:58.810Z,37.75
2022-10-22T09:37:30.028Z,39.97
2022-10-22T09:39:59.425Z,37.30
2022-10-22T09:42:27.556Z,45.20
2022-10-22T09:45:00.459Z,43.20
2022-10-22T09:50:41.477Z,39.07
2022-10-22T09:53:29.080Z,31.52
2022-10-22T09:56:00.246Z,29.48
2022-10-22T09:58:28.778Z,31.73
2022-10-22T10:00:59.447Z,31.05
2022-10-22T10:03:31.433Z,33.10
2022-10-22T10:06:04.950Z,24.33
2022-10-22T10:08:34.597Z,19.02
2022-10-22T10:11:16.818Z,29.27
2022-10-22T10:14:00.218Z,21.05
2022-10-22T10:17:01.209Z,18.50
2022-10-22T10:19:52.504Z,21.45
2022-10-22T10:22:20.338Z,27.38
2022-10-22T10:25:12.668Z,20.15
2022-10-22T10:27:52.055Z,24.40
2022-10-22T10:30:24.081Z,31.70
2022-10-22T10:33:11.003Z,36.88
2022-10-22T10:35:44.088Z,40.28
2022-10-22T10:38:53.669Z,37.97
2022-10-22T10:41:53.351Z,47.05
2022-10-22T10:44:39.357Z,39.43
2022-10-22T10:47:16.129Z,37.38
2022-10-22T10:49:44.397Z,38.03
2022-10-22T10:52:23.507Z,34.35
2022-10-22T10:55:11.851Z,24.77
2022-10-22T10:57:54.951Z,30.43
2022-10-22T11:00:24.085Z,25.50
2022-10-22T11:03:01.330Z,24.05
2022-10-22T11:05:35.986Z,33.17
2022-10-22T11:08:19.276Z,53.95
2022-10-22T11:10:50.604Z,40.70
2022-10-22T11:13:30.930Z,30.30
2022-10-22T11:16:16.089Z,26.33
2022-10-22T11:18:47.213Z,30.40
2022-10-22T11:21:26.698Z,27.85
2022-10-22T11:24:10.818Z,23.17
2022-10-22T11:26:44.455Z,22.45
2022-10-22T11:29:18.112Z,22.98
2022-10-22T11:31:46.708Z,20.67
2022-10-22T11:34:33.772Z,23.80
2022-10-22T11:37:05.053Z,31.67
2022-10-22T11:39:51.529Z,25.05
2022-10-22T11:42:22.506Z,25.45
2022-10-22T11:45:13.782Z,23.38
2022-10-22T11:48:07.320Z,26.55
2022-10-22T11:50:41.723Z,25.03
2022-10-22T11:53:16.638Z,19.95
2022-10-22T11:55:51.894Z,25.75
2022-10-22T11:58:35.860Z,23.58
2022-10-22T12:01:09.566Z,21.02
2022-10-22T12:04:06.381Z,21.40
2022-10-22T12:06:54.338Z,19.10
2022-10-22T12:09:26.382Z,10.38
2022-10-22T12:11:56.819Z,11.93
2022-10-22T12:14:52.177Z,9.88
2022-10-22T12:17:24.258Z,8.93
2022-10-22T12:20:08.075Z,9.82
2022-10-22T12:22:38.109Z,8.48
2022-10-22T12:25:35.606Z,9.23
2022-10-22T12:28:04.860Z,8.65
2022-10-22T12:30:35.854Z,14.27
2022-10-22T12:33:08.076Z,12.35
2022-10-22T12:35:43.887Z,9.55
2022-10-22T12:38:20.985Z,8.05
2022-10-22T12:40:50.578Z,7.15
2022-10-22T12:43:24.267Z,8.53
2022-10-22T12:45:53.161Z,9.10
2022-10-22T12:48:44.660Z,8.32
2022-10-22T12:51:19.855Z,7.03
2022-10-22T12:53:51.270Z,11.82
2022-10-22T12:56:24.080Z,13.70
2022-10-22T12:59:08.263Z,88.55
2022-10-22T13:01:38.805Z,95.72
2022-10-22T13:04:13.160Z,41.33
2022-10-22T13:06:46.044Z,29.63
2022-10-22T13:09:14.685Z,16.90
2022-10-22T13:11:50.341Z,9.73
2022-10-22T13:14:22.565Z,10.05
2022-10-22T13:17:08.620Z,20.48
2022-10-22T13:19:47.416Z,10.70
2022-10-22T13:22:36.316Z,13.53
2022-10-22T13:25:28.493Z,14.30
2022-10-22T13:28:00.165Z,18.00
2022-10-22T13:30:36.447Z,13.05
2022-10-22T13:33:23.111Z,10.27
2022-10-22T13:35:51.312Z,13.00
2022-10-22T13:38:20.804Z,11.75
2022-10-22T13:40:49.448Z,11.93
2022-10-22T13:43:18.218Z,14.90
2022-10-22T13:45:48.194Z,33.05
2022-10-22T13:48:19.559Z,15.73
2022-10-22T13:50:51.131Z,28.27
2022-10-22T13:53:22.439Z,22.05
2022-10-22T13:55:50.746Z,40.00
2022-10-22T13:58:20.984Z,57.70
2022-10-22T14:00:55.206Z,37.13
2022-10-22T14:03:28.549Z,22.33
2022-10-22T14:05:57.106Z,20.73
2022-10-22T14:08:26.279Z,21.67
2022-10-22T14:10:55.034Z,25.20
2022-10-22T14:13:22.730Z,23.80
2022-10-22T14:15:52.631Z,75.55
2022-10-22T14:18:26.733Z,30.90
2022-10-22T14:20:58.641Z,22.83
2022-10-22T14:23:29.947Z,32.92
2022-10-22T14:25:59.441Z,22.07
2022-10-22T14:28:29.794Z,32.75
2022-10-22T14:30:59.808Z,29.10
2022-10-22T14:33:33.041Z,30.35
2022-10-22T14:36:01.842Z,23.35
2022-10-22T14:38:29.910Z,24.30
2022-10-22T14:41:00.057Z,24.52
2022-10-22T14:43:31.467Z,21.40
2022-10-22T14:45:59.931Z,27.58
2022-10-22T14:48:27.582Z,18.00
2022-10-22T14:50:55.774Z,21.93
2022-10-22T14:53:23.666Z,26.02
2022-10-22T14:55:52.456Z,19.15
2022-10-22T14:58:20.265Z,18.40
2022-10-22T15:00:48.365Z,21.00
2022-10-22T15:03:16.023Z,20.60
2022-10-22T15:05:45.177Z,17.17
2022-10-22T15:08:14.674Z,19.42
2022-10-22T15:10:42.784Z,20.95
2022-10-22T15:13:10.733Z,18.15
2022-10-22T15:15:41.584Z,25.90
2022-10-22T15:18:10.221Z,21.90
2022-10-22T15:20:38.272Z,22.67
2022-10-22T15:23:06.183Z,25.13
2022-10-22T15:25:34.177Z,38.22
2022-10-22T15:28:09.055Z,36.87
2022-10-22T15:30:38.096Z,42.47
2022-10-22T15:33:06.599Z,43.00
2022-10-22T15:35:34.740Z,42.20
2022-10-22T15:38:02.404Z,41.10
2022-10-22T15:40:30.521Z,44.10
2022-10-22T15:42:58.640Z,46.60
2022-10-22T15:45:26.672Z,39.17
2022-10-22T15:47:54.371Z,36.30
2022-10-22T15:50:22.528Z,44.70
2022-10-22T15:52:50.358Z,51.10
2022-10-22T15:55:19.200Z,46.08
2022-10-22T15:57:46.911Z,42.25
2022-10-22T16:00:15.280Z,44.25
2022-10-22T16:02:43.832Z,43.25
2022-10-22T16:05:11.889Z,44.37
2022-10-22T16:07:39.770Z,44.22
2022-10-22T16:10:08.792Z,44.72
2022-10-22T16:12:36.468Z,50.70
2022-10-22T16:15:05.592Z,51.42
2022-10-22T16:17:33.314Z,49.40
2022-10-22T16:20:02.005Z,39.20
2022-10-22T16:22:29.697Z,54.28
2022-10-22T16:24:57.836Z,49.72
2022-10-22T16:27:25.722Z,37.65
2022-10-22T16:29:53.786Z,44.27
2022-10-22T16:32:21.467Z,46.25
2022-10-22T16:34:49.577Z,48.70
2022-10-22T16:37:17.287Z,36.33
2022-10-22T16:39:46.768Z,33.67
2022-10-22T16:42:14.607Z,35.83
2022-10-22T16:44:42.657Z,32.97
2022-10-22T16:47:10.371Z,26.27
2022-10-22T16:49:38.372Z,29.98
2022-10-22T16:52:06.490Z,26.13
2022-10-22T16:54:35.725Z,29.90
2022-10-22T16:57:03.655Z,23.88
2022-10-22T16:59:31.726Z,29.35
2022-10-22T17:01:59.477Z,38.55
2022-10-22T17:04:27.817Z,36.03
2022-10-22T17:06:55.474Z,31.23
2022-10-22T17:09:24.731Z,31.60
2022-10-22T17:11:52.594Z,29.50
2022-10-22T17:14:21.199Z,31.05
2022-10-22T17:16:53.947Z,41.67
2022-10-22T17:19:24.182Z,44.63
2022-10-22T17:21:53.834Z,33.65
2022-10-22T17:24:21.985Z,31.55
2022-10-22T17:26:50.951Z,40.13
2022-10-22T17:29:21.254Z,49.20
2022-10-22T17:31:50.543Z,53.20
2022-10-22T17:34:18.602Z,60.85
2022-10-22T17:36:46.625Z,43.63
2022-10-22T17:39:18.226Z,36.00
2022-10-22T17:41:46.311Z,34.50
2022-10-22T17:44:16.423Z,34.87
2022-10-22T17:46:45.637Z,37.47
2022-10-22T17:49:18.315Z,32.17
2022-10-22T17:51:47.265Z,30.13
2022-10-22T17:54:15.474Z,29.83
2022-10-22T17:56:43.649Z,25.43
2022-10-22T17:59:14.911Z,31.05
2022-10-22T18:01:47.914Z,27.05
2022-10-22T18:04:18.259Z,32.30
2022-10-22T18:06:47.398Z,32.15
2022-10-22T18:09:19.539Z,31.00
2022-10-22T18:11:49.704Z,35.25
2022-10-22T18:14:19.299Z,31.02
2022-10-22T18:16:47.603Z,37.08
2022-10-22T18:19:18.205Z,33.90
2022-10-22T18:21:46.708Z,32.73
2022-10-22T18:24:17.465Z,21.77
2022-10-22T18:26:45.720Z,33.92
2022-10-22T18:29:17.243Z,28.20
2022-10-22T18:31:45.840Z,27.23
2022-10-22T18:34:15.798Z,21.63
2022-10-22T18:36:45.656Z,22.25
2022-10-22T18:39:15.763Z,24.90
2022-10-22T18:41:44.349Z,29.55
2022-10-22T18:44:14.515Z,29.23
2022-10-22T18:46:42.432Z,25.17
2022-10-22T18:49:16.405Z,35.38
2022-10-22T18:51:44.579Z,24.70
2022-10-22T18:54:25.565Z,27.42
2022-10-22T18:57:00.513Z,52.28
2022-10-22T18:59:31.464Z,31.17
2022-10-22T19:02:00.011Z,40.47
2022-10-22T19:04:33.839Z,35.22
2022-10-22T19:07:01.853Z,28.92
2022-10-22T19:09:30.029Z,24.98
2022-10-22T19:11:57.816Z,26.00
2022-10-22T19:14:28.971Z,40.15
2022-10-22T19:16:56.809Z,30.27
2022-10-22T19:19:24.845Z,23.55
2022-10-22T19:21:53.750Z,23.77
2022-10-22T19:24:21.950Z,35.43
2022-10-22T19:26:50.174Z,35.67
2022-10-22T19:29:20.506Z,37.08
2022-10-22T19:31:51.501Z,36.45
2022-10-22T19:34:20.535Z,32.95
2022-10-22T19:36:48.261Z,30.00
2022-10-22T19:39:17.012Z,28.20
2022-10-22T19:41:46.469Z,25.95
2022-10-22T19:44:16.282Z,30.55
2022-10-22T19:46:43.995Z,25.38
2022-10-22T19:49:12.385Z,29.57
2022-10-22T19:51:40.463Z,23.33
2022-10-22T19:54:11.862Z,23.10
2022-10-22T19:56:39.699Z,26.98
2022-10-22T19:59:08.584Z,23.25
2022-10-22T20:01:36.438Z,26.33
2022-10-22T20:04:05.153Z,26.98
2022-10-22T20:06:34.011Z,21.67
2022-10-22T20:09:01.936Z,19.13
2022-10-22T20:11:30.460Z,19.08
2022-10-22T20:13:59.279Z,18.77
2022-10-22T20:16:30.291Z,15.50
2022-10-22T20:19:04.672Z,14.93
2022-10-22T20:21:33.979Z,17.40
2022-10-22T20:24:02.169Z,15.15
2022-10-22T20:26:31.875Z,16.67
2022-10-22T20:29:00.460Z,19.50
2022-10-22T20:31:29.901Z,19.80
2022-10-22T20:33:59.504Z,15.88
2022-10-22T20:36:28.799Z,14.02
2022-10-22T20:39:06.996Z,14.93
2022-10-22T20:41:38.151Z,11.80
2022-10-22T20:44:08.053Z,16.90
2022-10-22T20:46:35.763Z,16.35
2022-10-22T20:49:09.652Z,17.38
2022-10-22T20:51:37.917Z,18.00
2022-10-22T20:54:07.733Z,23.60
2022-10-22T20:56:37.868Z,21.00
2022-10-22T20:59:08.373Z,24.45
2022-10-22T21:01:37.609Z,25.73
2022-10-22T21:04:06.092Z,19.50
2022-10-22T21:06:34.520Z,17.75
2022-10-22T21:09:02.633Z,19.33
2022-10-22T21:11:30.633Z,23.15
2022-10-22T21:13:58.570Z,20.17
2022-10-22T21:16:26.692Z,19.37
2022-10-22T21:18:54.935Z,18.23
2022-10-22T21:21:22.822Z,17.67
2022-10-22T21:23:50.940Z,17.42
2022-10-22T21:26:20.027Z,22.63
2022-10-22T21:28:48.293Z,16.67
2022-10-22T21:31:22.259Z,20.25
2022-10-22T21:33:50.942Z,26.60
2022-10-22T21:36:22.631Z,26.00
2022-10-22T21:38:52.690Z,20.13
2022-10-22T21:41:22.202Z,20.43
2022-10-22T21:43:50.523Z,20.30
2022-10-22T21:46:24.565Z,25.77
2022-10-22T21:48:54.680Z,21.02
2022-10-22T21:51:24.352Z,22.70
2022-10-22T21:53:52.981Z,20.80
2022-10-22T21:56:34.305Z,26.00
2022-10-22T21:59:04.346Z,23.92
2022-10-22T22:01:32.199Z,24.95
2022-10-22T22:04:00.341Z,16.85
2022-10-22T22:06:33.202Z,15.67
2022-10-22T22:09:03.443Z,16.00
2022-10-22T22:11:31.801Z,14.30
2022-10-22T22:13:59.958Z,14.35
2022-10-22T22:16:31.266Z,11.55
2022-10-22T22:19:06.018Z,14.80
2022-10-22T22:21:35.898Z,13.27
2022-10-22T22:24:04.444Z,13.90
2022-10-22T22:26:32.748Z,12.77
2022-10-22T22:29:01.588Z,14.60
2022-10-22T22:31:31.854Z,16.40
2022-10-22T22:34:04.985Z,16.45
2022-10-22T22:36:38.428Z,15.48
2022-10-22T22:39:08.122Z,12.75
2022-10-22T22:41:36.030Z,14.02
2022-10-22T22:44:04.696Z,12.80
2022-10-22T22:46:32.989Z,14.35
2022-10-22T22:49:01.009Z,12.93
2022-10-22T22:51:29.384Z,14.43
2022-10-22T22:54:01.775Z,15.07
2022-10-22T22:56:32.213Z,16.07
2022-10-22T22:59:00.602Z,14.73
2022-10-22T23:01:32.151Z,15.85
2022-10-22T23:04:03.046Z,13.18
2022-10-22T23:06:33.833Z,12.57
2022-10-22T23:09:02.248Z,15.57
2022-10-22T23:11:30.433Z,14.40
2022-10-22T23:14:04.172Z,16.92
2022-10-22T23:16:34.641Z,25.67
2022-10-22T23:19:04.333Z,14.20
2022-10-22T23:21:38.221Z,13.77
2022-10-22T23:24:09.269Z,17.58
2022-10-22T23:26:40.789Z,17.98
2022-10-22T23:29:11.512Z,15.95
2022-10-22T23:31:39.434Z,15.10
2022-10-22T23:34:08.368Z,14.30
2022-10-22T23:37:42.120Z,20.90
2022-10-22T23:40:11.240Z,18.60
2022-10-22T23:45:11.809Z,15.20
2022-10-22T23:47:39.767Z,14.83
2022-10-22T23:50:08.541Z,13.32
2022-10-22T23:52:36.255Z,14.02
2022-10-22T23:55:04.526Z,12.15
2022-10-22T23:57:32.121Z,13.00
